createdAt,value
2022-11-13T00:02:38.155Z,22.23
2022-11-13T00:07:42.051Z,22.47
2022-11-13T00:12:45.972Z,21.63
2022-11-13T00:17:49.841Z,22.40
2022-11-13T00:22:53.494Z,21.90
2022-11-13T00:27:57.323Z,23.27
2022-11-13T05:31:48.582Z,21.07
2022-11-13T05:36:51.450Z,22.83
2022-11-13T05:41:54.508Z,21.77
2022-11-13T05:46:57.384Z,21.30
2022-11-13T05:52:00.281Z,20.33
2022-11-13T05:57:03.200Z,17.83
2022-11-13T06:02:06.285Z,17.87
2022-11-13T06:07:09.323Z,16.73
2022-11-13T06:12:12.183Z,15.67
2022-11-13T06:17:15.070Z,15.90
2022-11-13T06:22:18.061Z,17.07
2022-11-13T06:27:20.946Z,16.17
2022-11-13T06:32:25.972Z,16.17
2022-11-13T06:37:33.686Z,14.07
2022-11-13T06:42:37.585Z,16.67
2022-11-13T06:47:40.445Z,17.37
2022-11-13T06:52:43.378Z,15.47
2022-11-13T06:57:46.218Z,16.53
2022-11-13T07:02:52.154Z,16.60
2022-11-13T07:07:54.967Z,15.57
2022-11-13T07:13:00.390Z,16.50
2022-11-13T07:18:04.289Z,16.13
2022-11-13T07:23:07.138Z,18.43
2022-11-13T07:28:10.036Z,16.37
2022-11-13T07:33:12.877Z,15.57
2022-11-13T07:38:15.745Z,15.40
2022-11-13T07:43:18.610Z,17.70
2022-11-13T07:48:22.519Z,17.37
2022-11-13T07:53:25.386Z,15.63
2022-11-13T07:58:28.745Z,16.50
2022-11-13T08:03:32.554Z,17.00
2022-11-13T08:08:36.217Z,17.17
2022-11-13T08:13:39.149Z,18.57
2022-11-13T08:18:42.142Z,15.70
2022-11-13T08:23:45.032Z,18.33
2022-11-13T08:28:48.236Z,19.73
2022-11-13T08:33:51.213Z,16.53
2022-11-13T08:38:54.059Z,18.57
2022-11-13T08:43:56.888Z,17.33
2022-11-13T08:48:59.674Z,18.43
2022-11-13T08:54:02.450Z,16.70
2022-11-13T08:59:05.326Z,17.37
2022-11-13T09:04:08.387Z,16.20
2022-11-13T09:09:11.366Z,17.33
2022-11-13T09:14:14.434Z,15.13
2022-11-13T09:19:18.490Z,17.13
2022-11-13T09:24:21.551Z,17.37
2022-11-13T09:29:26.148Z,16.77
2022-11-13T09:34:29.962Z,15.90
2022-11-13T09:39:33.268Z,20.20
2022-11-13T09:44:45.417Z,16.70
2022-11-13T09:49:55.804Z,18.40
2022-11-13T09:55:13.925Z,19.67
2022-11-13T10:00:26.839Z,18.57
2022-11-13T10:05:53.971Z,18.67
2022-11-13T10:11:43.922Z,17.73
2022-11-13T10:17:02.256Z,18.77
2022-11-13T10:22:32.711Z,19.27
2022-11-13T10:27:36.231Z,21.63
2022-11-13T10:32:39.149Z,20.30
2022-11-13T10:38:25.169Z,20.90
2022-11-13T10:43:28.525Z,21.50
2022-11-13T10:48:37.114Z,20.73
2022-11-13T10:53:42.266Z,19.73
2022-11-13T10:58:45.621Z,21.93
2022-11-13T11:03:50.792Z,21.10
2022-11-13T11:09:04.870Z,20.73
2022-11-13T11:14:30.957Z,22.47
2022-11-13T11:26:42.565Z,21.80
2022-11-13T11:32:00.442Z,26.17
2022-11-13T11:37:22.079Z,27.03
2022-11-13T11:43:13.908Z,26.00
2022-11-13T11:48:26.876Z,23.73
2022-11-13T11:53:50.327Z,21.60
2022-11-13T11:59:18.929Z,21.97
2022-11-13T12:04:34.870Z,21.53
2022-11-13T12:10:00.389Z,21.47
2022-11-13T12:15:21.927Z,23.33
2022-11-13T12:20:52.562Z,21.43
2022-11-13T12:26:02.926Z,21.07
2022-11-13T12:31:43.402Z,19.80
2022-11-13T12:36:46.386Z,22.10
2022-11-13T12:42:16.962Z,22.67
2022-11-13T12:47:22.478Z,22.63
2022-11-13T12:52:25.319Z,21.77
2022-11-13T12:57:30.646Z,22.10
2022-11-13T13:02:55.597Z,21.40
2022-11-13T13:08:40.068Z,24.13
2022-11-13T13:14:24.141Z,22.03
2022-11-13T13:19:31.471Z,22.23
2022-11-13T13:24:38.196Z,22.43
2022-11-13T13:29:41.610Z,21.47
2022-11-13T13:35:09.836Z,20.83
2022-11-13T13:40:28.147Z,22.27
2022-11-13T13:45:57.020Z,24.40
2022-11-13T13:51:01.479Z,23.63
2022-11-13T13:56:05.273Z,24.17
2022-11-13T14:01:34.090Z,24.87
2022-11-13T14:06:37.043Z,23.30
2022-11-13T14:11:40.188Z,23.60
2022-11-13T14:16:51.374Z,24.60
2022-11-13T14:22:03.834Z,24.43
2022-11-13T14:27:13.068Z,26.80
2022-11-13T14:32:25.713Z,26.97
2022-11-13T14:37:38.219Z,25.80
2022-11-13T14:42:46.976Z,25.20
2022-11-13T14:47:59.521Z,27.20
2022-11-13T14:53:08.223Z,28.60
2022-11-13T14:58:14.161Z,28.73
2022-11-13T15:03:20.135Z,26.17
2022-11-13T15:08:30.346Z,29.87
2022-11-13T15:13:35.066Z,27.83
2022-11-13T15:18:37.884Z,29.07
2022-11-13T15:24:53.915Z,29.43
2022-11-13T15:30:12.271Z,30.30
2022-11-13T15:35:18.942Z,31.77
2022-11-13T15:40:42.765Z,29.90
2022-11-13T15:47:11.679Z,30.13
2022-11-13T15:52:18.890Z,31.80
2022-11-13T15:58:17.290Z,29.40
2022-11-13T16:10:12.615Z,30.50
2022-11-13T16:15:52.153Z,31.83
2022-11-13T16:21:16.105Z,29.60
2022-11-13T16:26:34.058Z,24.37
2022-11-13T16:31:39.183Z,24.73
2022-11-13T16:36:46.633Z,26.43
2022-11-13T16:42:01.731Z,27.00
2022-11-13T16:47:17.892Z,25.87
2022-11-13T16:52:39.144Z,26.17
2022-11-13T16:58:10.596Z,27.40
2022-11-13T17:03:24.379Z,28.03
2022-11-13T17:08:27.889Z,28.57
2022-11-13T17:13:37.111Z,29.03
2022-11-13T17:18:45.840Z,28.03
2022-11-13T17:24:17.113Z,32.10
2022-11-13T17:29:27.335Z,29.27
2022-11-13T17:34:46.752Z,30.53
2022-11-13T17:40:08.664Z,30.50
2022-11-13T17:51:12.272Z,25.27
2022-11-13T17:56:20.141Z,23.97
2022-11-13T18:01:23.674Z,23.23
2022-11-13T18:06:31.167Z,23.93
2022-11-13T18:11:47.654Z,22.90
2022-11-13T18:17:23.483Z,21.83
2022-11-13T18:22:46.169Z,22.80
2022-11-13T18:28:15.641Z,21.27
2022-11-13T18:34:20.978Z,22.57
2022-11-13T18:39:47.471Z,24.57
2022-11-13T18:45:46.748Z,23.30
2022-11-13T18:51:48.983Z,24.37
2022-11-13T19:03:18.523Z,29.57
2022-11-13T19:09:26.318Z,22.70
2022-11-13T19:15:14.813Z,21.47
2022-11-13T19:20:43.737Z,21.57
2022-11-13T19:26:09.493Z,23.07
2022-11-13T19:31:56.359Z,22.67
2022-11-13T19:38:19.133Z,22.13
2022-11-13T19:44:05.327Z,24.23
2022-11-13T19:49:31.804Z,26.37
2022-11-13T19:55:13.026Z,26.33
2022-11-13T20:01:02.476Z,27.57
2022-11-13T20:06:40.480Z,25.67
2022-11-13T20:12:29.474Z,27.80
2022-11-13T20:18:01.737Z,23.30
2022-11-13T20:23:34.703Z,24.83
2022-11-13T20:29:04.469Z,22.23
2022-11-13T20:34:55.986Z,20.33
2022-11-13T20:40:35.888Z,20.73
2022-11-13T20:46:30.040Z,21.77
2022-11-13T20:51:57.504Z,23.70
2022-11-13T20:57:24.780Z,21.60
2022-11-13T21:03:09.567Z,23.00
2022-11-13T21:08:51.690Z,23.23
2022-11-13T21:14:56.439Z,20.87
2022-11-13T21:20:42.042Z,19.90
2022-11-13T21:26:05.620Z,18.60
2022-11-13T21:31:22.253Z,19.13
2022-11-13T21:36:51.289Z,17.80
2022-11-13T21:42:27.194Z,18.80
2022-11-13T21:47:52.473Z,20.43
2022-11-13T21:53:18.428Z,19.37
2022-11-13T21:59:03.527Z,20.97
2022-11-13T22:04:17.880Z,23.10
2022-11-13T22:10:08.289Z,23.37
2022-11-13T22:15:20.703Z,24.67
2022-11-13T22:20:23.834Z,21.07
2022-11-13T22:25:37.081Z,20.47
2022-11-13T22:30:45.337Z,22.20
2022-11-13T22:35:51.674Z,20.87
2022-11-13T22:41:06.645Z,18.57
2022-11-13T22:46:20.100Z,19.40
2022-11-13T22:51:32.138Z,16.17
2022-11-13T22:56:50.888Z,16.20
2022-11-13T23:02:07.846Z,16.97
2022-11-13T23:07:36.105Z,17.83
2022-11-13T23:13:08.606Z,16.77
2022-11-13T23:18:34.363Z,15.50
2022-11-13T23:23:52.217Z,15.63
2022-11-13T23:29:28.104Z,16.07
2022-11-13T23:35:02.649Z,16.27
2022-11-13T23:40:24.284Z,16.40
2022-11-13T23:45:50.788Z,14.57
2022-11-13T23:51:04.668Z,16.03
2022-11-13T23:56:34.293Z,14.27
